sensor_id;sensor_type;location;lat;lon;timestamp;pressure;altitude;pressure_sealevel;temperature;humidity
36092;BME280;22147;52.388;13.390;2023-05-02T00:01:14;100731.44;;;9.60;100.00
36092;BME280;22147;52.388;13.390;2023-05-02T00:03:43;100731.06;;;9.52;100.00
36092;BME280;22147;52.388;13.390;2023-05-02T00:06:14;100726.00;;;9.46;100.00
36092;BME280;22147;52.388;13.390;2023-05-02T00:08:44;100728.94;;;9.41;100.00
36092;BME280;22147;52.388;13.390;2023-05-02T00:11:12;100726.28;;;9.35;100.00
36092;BME280;22147;52.388;13.390;2023-05-02T00:13:41;100721.38;;;9.32;100.00
36092;BME280;22147;52.388;13.390;2023-05-02T00:16:09;100727.09;;;9.27;100.00
36092;BME280;22147;52.388;13.390;2023-05-02T00:18:38;100723.94;;;9.20;100.00
36092;BME280;22147;52.388;13.390;2023-05-02T00:21:06;100718.53;;;9.15;100.00
36092;BME280;22147;52.388;13.390;2023-05-02T00:23:35;100723.41;;;9.09;100.00
36092;BME280;22147;52.388;13.390;2023-05-02T00:26:08;100719.13;;;9.03;100.00
36092;BME280;22147;52.388;13.390;2023-05-02T00:28:38;100721.22;;;8.98;100.00
36092;BME280;22147;52.388;13.390;2023-05-02T00:31:06;100725.28;;;8.91;100.00
36092;BME280;22147;52.388;13.390;2023-05-02T00:33:35;100721.00;;;8.85;100.00
36092;BME280;22147;52.388;13.390;2023-05-02T00:36:03;100721.75;;;8.77;100.00
36092;BME280;22147;52.388;13.390;2023-05-02T00:38:32;100718.13;;;8.68;100.00
36092;BME280;22147;52.388;13.390;2023-05-02T00:41:00;100720.81;;;8.59;100.00
36092;BME280;22147;52.388;13.390;2023-05-02T00:43:29;100725.16;;;8.51;100.00
36092;BME280;22147;52.388;13.390;2023-05-02T00:45:59;100715.66;;;8.44;100.00
36092;BME280;22147;52.388;13.390;2023-05-02T00:48:29;100719.97;;;8.36;100.00
36092;BME280;22147;52.388;13.390;2023-05-02T00:51:03;100722.84;;;8.31;100.00
36092;BME280;22147;52.388;13.390;2023-05-02T00:53:32;100717.44;;;8.26;100.00
36092;BME280;22147;52.388;13.390;2023-05-02T00:56:04;100716.44;;;8.22;100.00
36092;BME280;22147;52.388;13.390;2023-05-02T00:58:36;100717.38;;;8.17;100.00
36092;BME280;22147;52.388;13.390;2023-05-02T01:05:01;100719.84;;;8.05;100.00
36092;BME280;22147;52.388;13.390;2023-05-02T01:14:09;100729.50;;;7.93;100.00
36092;BME280;22147;52.388;13.390;2023-05-02T01:16:45;100728.47;;;7.89;100.00
36092;BME280;22147;52.388;13.390;2023-05-02T01:19:48;100733.19;;;7.89;100.00
36092;BME280;22147;52.388;13.390;2023-05-02T01:22:27;100727.34;;;7.90;100.00
36092;BME280;22147;52.388;13.390;2023-05-02T01:29:00;100731.84;;;8.00;100.00
36092;BME280;22147;52.388;13.390;2023-05-02T01:31:40;100731.72;;;8.05;100.00
36092;BME280;22147;52.388;13.390;2023-05-02T01:34:11;100737.97;;;8.11;100.00
36092;BME280;22147;52.388;13.390;2023-05-02T01:36:46;100739.16;;;8.19;100.00
36092;BME280;22147;52.388;13.390;2023-05-02T01:39:24;100740.69;;;8.25;100.00
36092;BME280;22147;52.388;13.390;2023-05-02T01:41:58;100743.03;;;8.31;100.00
36092;BME280;22147;52.388;13.390;2023-05-02T01:44:36;100752.03;;;8.37;100.00
36092;BME280;22147;52.388;13.390;2023-05-02T01:47:09;100760.75;;;8.44;100.00
36092;BME280;22147;52.388;13.390;2023-05-02T01:49:42;100758.69;;;8.50;100.00
36092;BME280;22147;52.388;13.390;2023-05-02T01:52:17;100756.28;;;8.57;100.00
36092;BME280;22147;52.388;13.390;2023-05-02T01:54:52;100756.69;;;8.64;100.00
36092;BME280;22147;52.388;13.390;2023-05-02T01:57:26;100755.94;;;8.72;100.00
36092;BME280;22147;52.388;13.390;2023-05-02T01:59:59;100762.53;;;8.85;100.00
36092;BME280;22147;52.388;13.390;2023-05-02T02:02:34;100761.78;;;8.93;100.00
36092;BME280;22147;52.388;13.390;2023-05-02T02:05:08;100758.56;;;9.00;100.00
36092;BME280;22147;52.388;13.390;2023-05-02T02:07:42;100759.41;;;9.09;100.00
36092;BME280;22147;52.388;13.390;2023-05-02T02:10:13;100756.19;;;9.16;100.00
36092;BME280;22147;52.388;13.390;2023-05-02T02:13:16;100761.41;;;9.17;100.00
36092;BME280;22147;52.388;13.390;2023-05-02T02:15:52;100764.41;;;9.30;99.62
36092;BME280;22147;52.388;13.390;2023-05-02T02:18:34;100767.69;;;9.32;99.66
36092;BME280;22147;52.388;13.390;2023-05-02T02:21:10;100772.94;;;9.33;99.57
36092;BME280;22147;52.388;13.390;2023-05-02T02:23:46;100780.84;;;9.26;100.00
36092;BME280;22147;52.388;13.390;2023-05-02T02:26:21;100783.44;;;9.23;100.00
36092;BME280;22147;52.388;13.390;2023-05-02T02:28:52;100791.44;;;9.24;100.00
36092;BME280;22147;52.388;13.390;2023-05-02T02:31:29;100784.00;;;9.33;100.00
36092;BME280;22147;52.388;13.390;2023-05-02T02:34:08;100794.91;;;9.30;100.00
36092;BME280;22147;52.388;13.390;2023-05-02T02:36:58;100799.91;;;9.19;100.00
36092;BME280;22147;52.388;13.390;2023-05-02T02:42:54;100805.91;;;9.12;100.00
36092;BME280;22147;52.388;13.390;2023-05-02T02:52:27;100814.22;;;9.12;100.00
36092;BME280;22147;52.388;13.390;2023-05-02T03:01:35;100825.03;;;9.00;100.00
36092;BME280;22147;52.388;13.390;2023-05-02T03:04:13;100837.38;;;8.94;100.00
36092;BME280;22147;52.388;13.390;2023-05-02T03:06:45;100841.41;;;8.88;100.00
36092;BME280;22147;52.388;13.390;2023-05-02T03:09:16;100861.09;;;8.86;100.00
36092;BME280;22147;52.388;13.390;2023-05-02T03:11:47;100860.66;;;8.70;100.00
36092;BME280;22147;52.388;13.390;2023-05-02T03:14:17;100862.56;;;8.70;100.00
36092;BME280;22147;52.388;13.390;2023-05-02T03:16:49;100880.84;;;8.71;100.00
36092;BME280;22147;52.388;13.390;2023-05-02T03:19:20;100880.56;;;8.59;100.00
36092;BME280;22147;52.388;13.390;2023-05-02T03:21:50;100877.47;;;8.60;100.00
36092;BME280;22147;52.388;13.390;2023-05-02T03:24:20;100879.22;;;8.56;100.00
36092;BME280;22147;52.388;13.390;2023-05-02T03:26:57;100879.81;;;8.67;100.00
36092;BME280;22147;52.388;13.390;2023-05-02T03:29:28;100879.81;;;8.67;100.00
36092;BME280;22147;52.388;13.390;2023-05-02T03:31:58;100885.50;;;8.62;100.00
36092;BME280;22147;52.388;13.390;2023-05-02T03:34:28;100890.00;;;8.58;100.00
36092;BME280;22147;52.388;13.390;2023-05-02T03:36:58;100883.63;;;8.57;100.00
36092;BME280;22147;52.388;13.390;2023-05-02T03:39:28;100890.31;;;8.56;100.00
36092;BME280;22147;52.388;13.390;2023-05-02T03:41:59;100885.78;;;8.60;100.00
36092;BME280;22147;52.388;13.390;2023-05-02T03:44:30;100888.56;;;8.60;100.00
36092;BME280;22147;52.388;13.390;2023-05-02T03:47:00;100894.19;;;8.69;100.00
36092;BME280;22147;52.388;13.390;2023-05-02T03:49:35;100893.88;;;8.70;100.00
36092;BME280;22147;52.388;13.390;2023-05-02T03:52:05;100897.44;;;8.71;100.00
36092;BME280;22147;52.388;13.390;2023-05-02T03:54:35;100901.03;;;8.71;100.00
36092;BME280;22147;52.388;13.390;2023-05-02T03:57:06;100913.84;;;8.67;100.00
36092;BME280;22147;52.388;13.390;2023-05-02T03:59:37;100917.66;;;8.71;100.00
36092;BME280;22147;52.388;13.390;2023-05-02T04:02:11;100921.75;;;8.74;100.00
36092;BME280;22147;52.388;13.390;2023-05-02T04:04:41;100921.84;;;8.83;100.00
36092;BME280;22147;52.388;13.390;2023-05-02T04:07:12;100933.03;;;8.77;100.00
36092;BME280;22147;52.388;13.390;2023-05-02T04:09:47;100937.63;;;8.82;100.00
36092;BME280;22147;52.388;13.390;2023-05-02T04:12:17;100936.44;;;8.74;100.00
36092;BME280;22147;52.388;13.390;2023-05-02T04:14:47;100943.78;;;8.79;100.00
36092;BME280;22147;52.388;13.390;2023-05-02T04:17:17;100949.03;;;8.81;100.00
36092;BME280;22147;52.388;13.390;2023-05-02T04:19:47;100947.06;;;8.81;100.00
36092;BME280;22147;52.388;13.390;2023-05-02T04:22:18;100949.22;;;8.84;100.00
36092;BME280;22147;52.388;13.390;2023-05-02T04:24:48;100944.38;;;8.90;100.00
36092;BME280;22147;52.388;13.390;2023-05-02T04:27:18;100948.47;;;8.92;100.00
36092;BME280;22147;52.388;13.390;2023-05-02T04:29:50;100953.41;;;8.95;100.00
36092;BME280;22147;52.388;13.390;2023-05-02T04:32:21;100960.97;;;9.04;100.00
36092;BME280;22147;52.388;13.390;2023-05-02T04:34:51;100958.69;;;9.06;100.00
36092;BME280;22147;52.388;13.390;2023-05-02T04:37:21;100960.22;;;9.12;100.00
36092;BME280;22147;52.388;13.390;2023-05-02T04:39:52;100973.75;;;9.27;100.00
36092;BME280;22147;52.388;13.390;2023-05-02T04:42:20;100971.53;;;9.38;100.00
36092;BME280;22147;52.388;13.390;2023-05-02T04:44:49;100981.00;;;9.60;100.00
36092;BME280;22147;52.388;13.390;2023-05-02T04:47:17;100983.00;;;9.68;100.00
36092;BME280;22147;52.388;13.390;2023-05-02T04:49:45;100995.03;;;9.86;100.00
36092;BME280;22147;52.388;13.390;2023-05-02T04:52:14;100985.75;;;9.90;100.00
36092;BME280;22147;52.388;13.390;2023-05-02T04:54:42;100992.50;;;9.98;100.00
36092;BME280;22147;52.388;13.390;2023-05-02T04:57:11;101000.41;;;10.13;100.00
36092;BME280;22147;52.388;13.390;2023-05-02T04:59:39;101006.47;;;10.15;100.00
36092;BME280;22147;52.388;13.390;2023-05-02T05:02:08;101009.13;;;10.21;100.00
36092;BME280;22147;52.388;13.390;2023-05-02T05:04:39;101015.81;;;10.28;100.00
36092;BME280;22147;52.388;13.390;2023-05-02T05:07:07;101025.19;;;10.32;100.00
36092;BME280;22147;52.388;13.390;2023-05-02T05:09:36;101028.81;;;10.33;100.00
36092;BME280;22147;52.388;13.390;2023-05-02T05:12:05;101026.34;;;10.31;100.00
36092;BME280;22147;52.388;13.390;2023-05-02T05:14:39;101025.91;;;10.47;100.00
36092;BME280;22147;52.388;13.390;2023-05-02T05:17:10;101030.22;;;10.62;100.00
36092;BME280;22147;52.388;13.390;2023-05-02T05:19:40;101033.19;;;10.65;100.00
36092;BME280;22147;52.388;13.390;2023-05-02T05:22:10;101032.00;;;10.57;100.00
36092;BME280;22147;52.388;13.390;2023-05-02T05:24:40;101039.06;;;10.64;100.00
36092;BME280;22147;52.388;13.390;2023-05-02T05:27:10;101046.91;;;10.70;100.00
36092;BME280;22147;52.388;13.390;2023-05-02T05:29:41;101049.75;;;10.88;100.00
36092;BME280;22147;52.388;13.390;2023-05-02T05:32:11;101064.63;;;10.92;100.00
36092;BME280;22147;52.388;13.390;2023-05-02T05:34:41;101065.31;;;10.97;99.65
36092;BME280;22147;52.388;13.390;2023-05-02T05:37:11;101063.34;;;10.98;99.83
36092;BME280;22147;52.388;13.390;2023-05-02T05:39:42;101065.81;;;10.99;99.32
36092;BME280;22147;52.388;13.390;2023-05-02T05:42:13;101064.25;;;11.25;96.42
36092;BME280;22147;52.388;13.390;2023-05-02T05:44:46;101078.75;;;11.13;96.53
36092;BME280;22147;52.388;13.390;2023-05-02T05:47:20;101078.03;;;10.90;99.53
36092;BME280;22147;52.388;13.390;2023-05-02T05:49:55;101080.31;;;10.88;100.00
36092;BME280;22147;52.388;13.390;2023-05-02T05:52:25;101077.00;;;10.77;100.00
36092;BME280;22147;52.388;13.390;2023-05-02T05:54:56;101078.47;;;10.74;100.00
36092;BME280;22147;52.388;13.390;2023-05-02T05:57:26;101083.56;;;10.81;100.00
36092;BME280;22147;52.388;13.390;2023-05-02T05:59:56;101091.53;;;11.14;99.31
36092;BME280;22147;52.388;13.390;2023-05-02T06:02:26;101091.97;;;10.98;99.96
36092;BME280;22147;52.388;13.390;2023-05-02T06:04:57;101100.34;;;11.07;100.00
36092;BME280;22147;52.388;13.390;2023-05-02T06:07:27;101107.94;;;11.41;99.03
36092;BME280;22147;52.388;13.390;2023-05-02T06:09:57;101110.72;;;11.59;98.68
36092;BME280;22147;52.388;13.390;2023-05-02T06:12:28;101117.00;;;11.99;97.47
36092;BME280;22147;52.388;13.390;2023-05-02T06:15:00;101119.56;;;12.39;92.45
36092;BME280;22147;52.388;13.390;2023-05-02T06:17:30;101127.38;;;12.55;91.73
36092;BME280;22147;52.388;13.390;2023-05-02T06:20:01;101139.00;;;12.74;92.87
36092;BME280;22147;52.388;13.390;2023-05-02T06:22:31;101141.16;;;13.07;90.34
36092;BME280;22147;52.388;13.390;2023-05-02T06:25:02;101144.34;;;13.56;87.90
36092;BME280;22147;52.388;13.390;2023-05-02T06:27:34;101143.75;;;13.51;86.72
36092;BME280;22147;52.388;13.390;2023-05-02T06:30:05;101153.56;;;13.57;87.49
36092;BME280;22147;52.388;13.390;2023-05-02T06:32:33;101146.50;;;13.30;86.78
36092;BME280;22147;52.388;13.390;2023-05-02T06:35:03;101155.72;;;13.13;88.71
36092;BME280;22147;52.388;13.390;2023-05-02T06:37:34;101157.41;;;13.43;87.74
36092;BME280;22147;52.388;13.390;2023-05-02T06:40:04;101160.34;;;13.47;88.06
36092;BME280;22147;52.388;13.390;2023-05-02T06:42:34;101165.75;;;13.73;86.30
36092;BME280;22147;52.388;13.390;2023-05-02T06:45:04;101174.00;;;13.70;87.27
36092;BME280;22147;52.388;13.390;2023-05-02T06:47:34;101171.25;;;13.82;87.30
36092;BME280;22147;52.388;13.390;2023-05-02T06:50:05;101178.75;;;13.90;88.13
36092;BME280;22147;52.388;13.390;2023-05-02T06:52:34;101182.31;;;13.99;85.83
36092;BME280;22147;52.388;13.390;2023-05-02T06:55:05;101189.59;;;14.34;85.62
36092;BME280;22147;52.388;13.390;2023-05-02T06:57:35;101205.09;;;14.64;83.21
36092;BME280;22147;52.388;13.390;2023-05-02T07:00:05;101212.59;;;14.52;85.06
36092;BME280;22147;52.388;13.390;2023-05-02T07:02:35;101206.13;;;14.60;86.22
36092;BME280;22147;52.388;13.390;2023-05-02T07:05:05;101211.03;;;14.63;83.52
36092;BME280;22147;52.388;13.390;2023-05-02T07:07:35;101221.28;;;14.38;86.63
36092;BME280;22147;52.388;13.390;2023-05-02T07:10:05;101227.19;;;14.36;86.34
36092;BME280;22147;52.388;13.390;2023-05-02T07:12:35;101221.59;;;14.36;86.79
36092;BME280;22147;52.388;13.390;2023-05-02T07:15:07;101244.16;;;13.59;88.99
36092;BME280;22147;52.388;13.390;2023-05-02T07:17:35;101248.84;;;13.29;92.43
36092;BME280;22147;52.388;13.390;2023-05-02T07:20:06;101235.94;;;13.07;94.47
36092;BME280;22147;52.388;13.390;2023-05-02T07:22:36;101247.63;;;12.92;95.02
36092;BME280;22147;52.388;13.390;2023-05-02T07:25:06;101247.03;;;12.69;97.62
36092;BME280;22147;52.388;13.390;2023-05-02T07:27:36;101253.06;;;12.79;98.55
36092;BME280;22147;52.388;13.390;2023-05-02T07:30:06;101260.13;;;12.86;98.04
36092;BME280;22147;52.388;13.390;2023-05-02T07:32:37;101257.13;;;12.91;97.19
36092;BME280;22147;52.388;13.390;2023-05-02T07:35:07;101260.75;;;13.00;98.78
36092;BME280;22147;52.388;13.390;2023-05-02T07:37:37;101263.84;;;13.54;93.44
36092;BME280;22147;52.388;13.390;2023-05-02T07:40:05;101265.19;;;13.57;93.51
36092;BME280;22147;52.388;13.390;2023-05-02T07:42:35;101258.84;;;13.39;93.42
36092;BME280;22147;52.388;13.390;2023-05-02T07:45:07;101274.97;;;13.72;92.60
36092;BME280;22147;52.388;13.390;2023-05-02T07:47:36;101283.69;;;13.61;91.88
36092;BME280;22147;52.388;13.390;2023-05-02T07:50:06;101281.59;;;13.50;93.44
36092;BME280;22147;52.388;13.390;2023-05-02T07:52:37;101276.34;;;13.57;94.02
36092;BME280;22147;52.388;13.390;2023-05-02T07:55:07;101284.09;;;13.42;94.62
36092;BME280;22147;52.388;13.390;2023-05-02T07:57:37;101287.75;;;13.34;94.19
36092;BME280;22147;52.388;13.390;2023-05-02T08:00:08;101284.47;;;13.23;95.18
36092;BME280;22147;52.388;13.390;2023-05-02T08:02:38;101286.81;;;13.04;95.58
36092;BME280;22147;52.388;13.390;2023-05-02T08:05:08;101273.66;;;13.13;96.38
36092;BME280;22147;52.388;13.390;2023-05-02T08:07:36;101286.44;;;13.14;97.70
36092;BME280;22147;52.388;13.390;2023-05-02T08:10:06;101289.38;;;13.18;97.96
36092;BME280;22147;52.388;13.390;2023-05-02T08:12:41;101295.00;;;13.09;97.79
36092;BME280;22147;52.388;13.390;2023-05-02T08:15:11;101298.47;;;13.06;98.42
36092;BME280;22147;52.388;13.390;2023-05-02T08:17:40;101304.03;;;13.06;98.14
36092;BME280;22147;52.388;13.390;2023-05-02T08:20:10;101295.00;;;13.00;99.42
36092;BME280;22147;52.388;13.390;2023-05-02T08:22:40;101305.69;;;12.98;100.00
36092;BME280;22147;52.388;13.390;2023-05-02T08:25:10;101306.94;;;13.18;100.00
36092;BME280;22147;52.388;13.390;2023-05-02T08:27:40;101313.34;;;13.36;99.71
36092;BME280;22147;52.388;13.390;2023-05-02T08:30:11;101307.69;;;13.54;99.57
36092;BME280;22147;52.388;13.390;2023-05-02T08:32:40;101313.75;;;13.94;94.63
36092;BME280;22147;52.388;13.390;2023-05-02T08:35:10;101319.13;;;14.29;93.38
36092;BME280;22147;52.388;13.390;2023-05-02T08:37:41;101313.16;;;14.60;89.83
36092;BME280;22147;52.388;13.390;2023-05-02T08:40:11;101316.50;;;14.75;90.76
36092;BME280;22147;52.388;13.390;2023-05-02T08:42:43;101315.06;;;14.69;90.57
36092;BME280;22147;52.388;13.390;2023-05-02T08:45:14;101322.53;;;14.98;87.55
36092;BME280;22147;52.388;13.390;2023-05-02T08:47:44;101329.38;;;15.21;86.99
36092;BME280;22147;52.388;13.390;2023-05-02T08:50:17;101326.31;;;15.14;85.71
36092;BME280;22147;52.388;13.390;2023-05-02T08:52:50;101328.75;;;15.03;85.63
36092;BME280;22147;52.388;13.390;2023-05-02T08:55:22;101336.03;;;14.96;86.51
36092;BME280;22147;52.388;13.390;2023-05-02T08:57:57;101342.44;;;14.96;86.22
36092;BME280;22147;52.388;13.390;2023-05-02T09:00:26;101344.94;;;14.77;86.51
36092;BME280;22147;52.388;13.390;2023-05-02T09:06:19;101355.94;;;14.31;90.77
36092;BME280;22147;52.388;13.390;2023-05-02T09:08:51;101368.53;;;14.37;89.01
36092;BME280;22147;52.388;13.390;2023-05-02T09:11:22;101365.50;;;13.92;91.37
36092;BME280;22147;52.388;13.390;2023-05-02T09:13:52;101369.63;;;13.85;92.67
36092;BME280;22147;52.388;13.390;2023-05-02T09:16:25;101368.00;;;13.84;94.20
36092;BME280;22147;52.388;13.390;2023-05-02T09:18:57;101374.63;;;14.01;93.36
36092;BME280;22147;52.388;13.390;2023-05-02T09:21:37;101376.94;;;14.37;93.06
36092;BME280;22147;52.388;13.390;2023-05-02T09:24:21;101388.22;;;14.92;89.81
36092;BME280;22147;52.388;13.390;2023-05-02T09:27:06;101388.53;;;15.11;87.23
36092;BME280;22147;52.388;13.390;2023-05-02T09:29:36;101390.91;;;15.21;85.42
36092;BME280;22147;52.388;13.390;2023-05-02T09:32:07;101382.63;;;15.13;84.81
36092;BME280;22147;52.388;13.390;2023-05-02T09:34:38;101384.59;;;15.12;85.80
36092;BME280;22147;52.388;13.390;2023-05-02T09:37:08;101386.06;;;14.76;85.79
36092;BME280;22147;52.388;13.390;2023-05-02T09:40:07;101393.28;;;14.18;88.77
36092;BME280;22147;52.388;13.390;2023-05-02T09:42:38;101391.03;;;14.11;90.94
36092;BME280;22147;52.388;13.390;2023-05-02T09:45:22;101391.13;;;14.23;92.32
36092;BME280;22147;52.388;13.390;2023-05-02T09:47:54;101388.22;;;14.41;90.73
36092;BME280;22147;52.388;13.390;2023-05-02T09:50:35;101397.31;;;14.38;89.80
36092;BME280;22147;52.388;13.390;2023-05-02T09:53:08;101403.06;;;14.33;91.40
36092;BME280;22147;52.388;13.390;2023-05-02T09:55:40;101397.25;;;14.17;94.20
36092;BME280;22147;52.388;13.390;2023-05-02T09:58:23;101405.41;;;14.22;93.07
36092;BME280;22147;52.388;13.390;2023-05-02T10:00:54;101411.06;;;14.13;93.17
36092;BME280;22147;52.388;13.390;2023-05-02T10:03:27;101418.75;;;13.87;94.14
36092;BME280;22147;52.388;13.390;2023-05-02T10:05:59;101417.78;;;13.65;96.16
36092;BME280;22147;52.388;13.390;2023-05-02T10:08:32;101415.09;;;13.30;100.00
36092;BME280;22147;52.388;13.390;2023-05-02T10:11:07;101422.28;;;13.14;100.00
36092;BME280;22147;52.388;13.390;2023-05-02T10:13:40;101429.84;;;13.04;100.00
36092;BME280;22147;52.388;13.390;2023-05-02T10:16:23;101434.41;;;13.00;100.00
36092;BME280;22147;52.388;13.390;2023-05-02T10:19:08;101427.69;;;13.01;100.00
36092;BME280;22147;52.388;13.390;2023-05-02T10:21:42;101434.09;;;13.28;100.00
36092;BME280;22147;52.388;13.390;2023-05-02T10:24:14;101439.84;;;14.05;99.35
36092;BME280;22147;52.388;13.390;2023-05-02T10:26:47;101443.88;;;14.55;95.28
36092;BME280;22147;52.388;13.390;2023-05-02T10:29:17;101439.66;;;14.49;93.62
36092;BME280;22147;52.388;13.390;2023-05-02T10:31:49;101449.16;;;14.48;92.74
36092;BME280;22147;52.388;13.390;2023-05-02T10:34:21;101449.41;;;14.34;93.66
36092;BME280;22147;52.388;13.390;2023-05-02T10:36:54;101442.34;;;14.36;93.10
36092;BME280;22147;52.388;13.390;2023-05-02T10:39:26;101450.44;;;14.29;94.24
36092;BME280;22147;52.388;13.390;2023-05-02T10:42:01;101457.59;;;14.00;97.30
36092;BME280;22147;52.388;13.390;2023-05-02T10:44:36;101473.63;;;13.56;100.00
36092;BME280;22147;52.388;13.390;2023-05-02T10:47:25;101471.53;;;13.36;100.00
36092;BME280;22147;52.388;13.390;2023-05-02T10:50:02;101476.28;;;13.35;100.00
36092;BME280;22147;52.388;13.390;2023-05-02T10:52:37;101479.91;;;13.36;100.00
36092;BME280;22147;52.388;13.390;2023-05-02T10:55:21;101486.75;;;13.12;100.00
36092;BME280;22147;52.388;13.390;2023-05-02T11:00:33;101489.16;;;12.70;100.00
36092;BME280;22147;52.388;13.390;2023-05-02T11:03:03;101504.50;;;13.25;100.00
36092;BME280;22147;52.388;13.390;2023-05-02T11:06:04;101509.69;;;12.92;100.00
36092;BME280;22147;52.388;13.390;2023-05-02T11:08:38;101508.94;;;12.51;100.00
36092;BME280;22147;52.388;13.390;2023-05-02T11:11:40;101513.97;;;11.87;100.00
36092;BME280;22147;52.388;13.390;2023-05-02T11:14:12;101518.94;;;11.90;100.00
36092;BME280;22147;52.388;13.390;2023-05-02T11:17:10;101531.50;;;11.65;100.00
36092;BME280;22147;52.388;13.390;2023-05-02T11:24:50;101538.78;;;11.15;100.00
36092;BME280;22147;52.388;13.390;2023-05-02T11:30:07;101553.22;;;10.90;100.00
36092;BME280;22147;52.388;13.390;2023-05-02T11:35:26;101563.31;;;10.58;100.00
36092;BME280;22147;52.388;13.390;2023-05-02T11:38:01;101570.13;;;10.79;100.00
36092;BME280;22147;52.388;13.390;2023-05-02T11:40:39;101578.53;;;10.74;100.00
36092;BME280;22147;52.388;13.390;2023-05-02T11:43:16;101576.69;;;10.70;100.00
36092;BME280;22147;52.388;13.390;2023-05-02T11:45:47;101574.72;;;10.70;100.00
36092;BME280;22147;52.388;13.390;2023-05-02T11:48:18;101572.78;;;10.85;100.00
36092;BME280;22147;52.388;13.390;2023-05-02T11:51:01;101573.19;;;11.06;100.00
36092;BME280;22147;52.388;13.390;2023-05-02T11:53:39;101580.97;;;11.17;100.00
36092;BME280;22147;52.388;13.390;2023-05-02T11:56:10;101587.63;;;11.44;99.38
36092;BME280;22147;52.388;13.390;2023-05-02T11:58:40;101575.25;;;11.50;99.50
36092;BME280;22147;52.388;13.390;2023-05-02T12:01:14;101587.50;;;11.49;100.00
36092;BME280;22147;52.388;13.390;2023-05-02T12:03:46;101581.19;;;11.94;93.53
36092;BME280;22147;52.388;13.390;2023-05-02T12:06:18;101598.00;;;12.11;90.98
36092;BME280;22147;52.388;13.390;2023-05-02T12:08:49;101605.41;;;11.93;90.35
36092;BME280;22147;52.388;13.390;2023-05-02T12:11:22;101599.97;;;11.74;90.15
36092;BME280;22147;52.388;13.390;2023-05-02T12:13:53;101599.91;;;11.66;92.16
36092;BME280;22147;52.388;13.390;2023-05-02T12:16:24;101606.50;;;11.33;93.53
36092;BME280;22147;52.388;13.390;2023-05-02T12:18:55;101606.28;;;11.44;92.60
36092;BME280;22147;52.388;13.390;2023-05-02T12:21:29;101602.81;;;11.60;91.19
36092;BME280;22147;52.388;13.390;2023-05-02T12:24:02;101602.09;;;11.91;91.74
36092;BME280;22147;52.388;13.390;2023-05-02T12:26:32;101616.03;;;12.36;88.75
36092;BME280;22147;52.388;13.390;2023-05-02T12:29:03;101616.53;;;12.38;86.11
36092;BME280;22147;52.388;13.390;2023-05-02T12:31:36;101620.03;;;12.53;86.12
36092;BME280;22147;52.388;13.390;2023-05-02T12:34:06;101625.81;;;12.96;86.19
36092;BME280;22147;52.388;13.390;2023-05-02T12:36:43;101622.56;;;13.12;82.24
36092;BME280;22147;52.388;13.390;2023-05-02T12:39:14;101621.44;;;13.13;81.21
36092;BME280;22147;52.388;13.390;2023-05-02T12:41:45;101612.44;;;13.24;79.44
36092;BME280;22147;52.388;13.390;2023-05-02T12:44:16;101617.41;;;13.36;79.32
36092;BME280;22147;52.388;13.390;2023-05-02T12:47:04;101620.47;;;13.26;79.69
36092;BME280;22147;52.388;13.390;2023-05-02T12:49:51;101621.06;;;13.72;78.44
36092;BME280;22147;52.388;13.390;2023-05-02T12:52:51;101621.72;;;14.12;78.21
36092;BME280;22147;52.388;13.390;2023-05-02T12:55:28;101624.50;;;13.77;74.94
36092;BME280;22147;52.388;13.390;2023-05-02T12:58:09;101624.81;;;13.50;76.51
36092;BME280;22147;52.388;13.390;2023-05-02T13:00:42;101632.31;;;12.83;78.90
36092;BME280;22147;52.388;13.390;2023-05-02T13:03:16;101629.34;;;12.79;78.94
36092;BME280;22147;52.388;13.390;2023-05-02T13:05:46;101635.84;;;13.06;79.10
36092;BME280;22147;52.388;13.390;2023-05-02T13:08:16;101632.25;;;13.72;77.02
36092;BME280;22147;52.388;13.390;2023-05-02T13:10:46;101633.84;;;13.99;74.50
36092;BME280;22147;52.388;13.390;2023-05-02T13:13:16;101642.53;;;14.32;71.89
36092;BME280;22147;52.388;13.390;2023-05-02T13:15:47;101643.72;;;13.96;70.15
36092;BME280;22147;52.388;13.390;2023-05-02T13:18:17;101648.50;;;13.61;73.76
36092;BME280;22147;52.388;13.390;2023-05-02T13:20:47;101641.38;;;13.46;72.32
36092;BME280;22147;52.388;13.390;2023-05-02T13:23:17;101655.53;;;13.10;74.30
36092;BME280;22147;52.388;13.390;2023-05-02T13:25:48;101652.22;;;12.99;75.09
36092;BME280;22147;52.388;13.390;2023-05-02T13:28:18;101651.97;;;13.18;74.91
36092;BME280;22147;52.388;13.390;2023-05-02T13:30:48;101659.97;;;13.11;73.47
36092;BME280;22147;52.388;13.390;2023-05-02T13:33:18;101656.41;;;13.19;73.82
36092;BME280;22147;52.388;13.390;2023-05-02T13:35:48;101651.72;;;13.54;70.62
36092;BME280;22147;52.388;13.390;2023-05-02T13:38:18;101659.25;;;13.36;70.79
36092;BME280;22147;52.388;13.390;2023-05-02T13:40:49;101660.59;;;13.08;73.16
36092;BME280;22147;52.388;13.390;2023-05-02T13:43:19;101661.63;;;13.20;74.04
36092;BME280;22147;52.388;13.390;2023-05-02T13:45:49;101660.19;;;13.23;71.13
36092;BME280;22147;52.388;13.390;2023-05-02T13:48:21;101659.66;;;13.12;70.75
36092;BME280;22147;52.388;13.390;2023-05-02T13:50:51;101672.44;;;13.04;70.69
36092;BME280;22147;52.388;13.390;2023-05-02T13:53:21;101661.94;;;13.59;69.98